createdAt,value
2018-05-31T00:00:39.906Z,20.48
2018-05-31T00:03:07.416Z,20.50
2018-05-31T00:05:34.960Z,20.51
2018-05-31T00:08:02.443Z,20.51
2018-05-31T00:10:30.016Z,20.47
2018-05-31T00:12:57.474Z,20.42
2018-05-31T00:15:24.989Z,20.43
2018-05-31T00:17:52.559Z,20.41
2018-05-31T00:20:20.106Z,20.36
2018-05-31T00:22:47.598Z,20.34
2018-05-31T00:25:15.133Z,20.31
2018-05-31T00:27:42.639Z,20.28
2018-05-31T00:30:10.138Z,20.25
2018-05-31T00:32:37.697Z,20.20
2018-05-31T00:35:05.256Z,20.16
2018-05-31T00:37:32.817Z,20.13
2018-05-31T00:40:00.375Z,20.08
2018-05-31T00:42:27.933Z,20.04
2018-05-31T00:44:55.426Z,20.00
2018-05-31T00:47:22.949Z,19.82
2018-05-31T00:49:50.431Z,19.91
2018-05-31T00:52:17.934Z,19.87
2018-05-31T00:54:45.423Z,19.86
2018-05-31T00:57:12.979Z,19.83
2018-05-31T00:59:40.640Z,19.80
2018-05-31T01:02:08.118Z,19.79
2018-05-31T01:04:35.657Z,19.80
2018-05-31T01:07:03.214Z,19.80
2018-05-31T01:09:30.772Z,19.80
2018-05-31T01:11:58.342Z,19.79
2018-05-31T01:14:25.890Z,19.70
2018-05-31T01:16:53.450Z,19.68
2018-05-31T01:19:20.930Z,19.63
2018-05-31T01:21:48.467Z,19.60
2018-05-31T01:24:15.959Z,19.57
2018-05-31T01:26:43.466Z,19.51
2018-05-31T01:29:10.951Z,19.43
2018-05-31T01:31:38.454Z,19.34
2018-05-31T01:34:05.951Z,19.28
2018-05-31T01:36:33.447Z,19.21
2018-05-31T01:39:00.946Z,19.15
2018-05-31T01:41:28.436Z,19.10
2018-05-31T01:43:55.926Z,19.04
2018-05-31T01:46:23.438Z,18.96
2018-05-31T01:48:50.922Z,18.91
2018-05-31T01:51:18.455Z,18.88
2018-05-31T01:53:45.954Z,18.83
2018-05-31T01:56:13.490Z,18.81
2018-05-31T01:58:41.029Z,18.77
2018-05-31T02:01:08.563Z,18.72
2018-05-31T02:03:36.147Z,18.67
2018-05-31T02:06:03.632Z,18.62
2018-05-31T02:08:31.118Z,18.56
2018-05-31T02:10:58.607Z,18.50
2018-05-31T02:13:26.095Z,18.46
2018-05-31T02:15:53.634Z,18.43
2018-05-31T02:18:21.191Z,18.40
2018-05-31T02:20:48.755Z,18.37
2018-05-31T02:23:16.310Z,18.34
2018-05-31T02:25:43.871Z,18.34
2018-05-31T02:28:11.429Z,18.32
2018-05-31T02:30:38.931Z,18.32
2018-05-31T02:33:06.554Z,18.32
2018-05-31T02:35:34.104Z,18.33
2018-05-31T02:38:01.603Z,18.34
2018-05-31T02:40:29.122Z,18.32
2018-05-31T02:42:56.618Z,18.32
2018-05-31T02:45:24.159Z,18.31
2018-05-31T02:47:51.694Z,18.31
2018-05-31T02:50:19.243Z,18.31
2018-05-31T02:52:46.755Z,18.31
2018-05-31T02:55:14.268Z,18.31
2018-05-31T02:57:41.782Z,18.29
2018-05-31T03:00:09.294Z,18.28
2018-05-31T03:02:36.843Z,18.27
2018-05-31T03:05:04.322Z,18.26
2018-05-31T03:07:31.837Z,18.24
2018-05-31T03:09:59.303Z,18.22
2018-05-31T03:12:26.863Z,18.22
2018-05-31T03:14:54.434Z,18.23
2018-05-31T03:17:21.991Z,18.23
2018-05-31T03:19:49.487Z,18.23
2018-05-31T03:22:16.988Z,18.25
2018-05-31T03:24:44.483Z,18.28
2018-05-31T03:27:11.967Z,18.28
2018-05-31T03:29:39.458Z,18.31
2018-05-31T03:32:06.951Z,18.32
2018-05-31T03:34:34.430Z,18.31
2018-05-31T03:37:01.953Z,18.36
2018-05-31T03:39:29.451Z,18.37
2018-05-31T03:41:56.967Z,18.39
2018-05-31T03:44:24.526Z,18.41
2018-05-31T03:46:52.011Z,18.41
2018-05-31T03:49:19.513Z,18.45
2018-05-31T03:51:47.071Z,18.49
2018-05-31T03:54:14.636Z,18.51
2018-05-31T03:56:42.218Z,18.54
2018-05-31T03:59:09.777Z,18.54
2018-05-31T04:01:37.337Z,18.58
2018-05-31T04:04:04.896Z,18.59
2018-05-31T04:06:32.455Z,18.64
2018-05-31T04:09:00.014Z,18.68
2018-05-31T04:11:27.510Z,18.70
2018-05-31T04:13:55.025Z,18.79
2018-05-31T04:16:22.514Z,18.84
2018-05-31T04:18:50.041Z,18.92
2018-05-31T04:21:17.522Z,18.97
2018-05-31T04:23:45.034Z,19.06
2018-05-31T04:26:12.521Z,19.10
2018-05-31T04:28:40.149Z,19.18
2018-05-31T04:31:07.650Z,19.24
2018-05-31T04:33:35.191Z,19.32
2018-05-31T04:36:02.648Z,19.39
2018-05-31T04:38:30.155Z,19.40
2018-05-31T04:40:57.776Z,19.47
2018-05-31T04:43:25.329Z,19.49
2018-05-31T04:45:52.882Z,19.52
2018-05-31T04:48:20.442Z,19.55
2018-05-31T04:50:47.951Z,19.60
2018-05-31T04:53:15.444Z,19.63
2018-05-31T04:55:42.943Z,19.68
2018-05-31T04:58:10.466Z,19.74
2018-05-31T05:00:37.979Z,19.78
2018-05-31T05:03:05.506Z,19.82
2018-05-31T05:05:33.051Z,19.84
2018-05-31T05:08:00.612Z,19.87
2018-05-31T05:10:28.171Z,19.66
2018-05-31T05:12:55.669Z,19.97
2018-05-31T05:15:23.206Z,20.02
2018-05-31T05:17:50.740Z,20.08
2018-05-31T05:20:18.302Z,20.10
2018-05-31T05:22:45.790Z,20.15
2018-05-31T05:25:13.283Z,20.22
2018-05-31T05:27:40.876Z,20.32
2018-05-31T05:30:08.389Z,20.40
2018-05-31T05:32:35.885Z,20.44
2018-05-31T05:35:03.372Z,20.40
2018-05-31T05:37:30.932Z,20.44
2018-05-31T05:39:58.459Z,20.52
2018-05-31T05:42:26.019Z,20.60
2018-05-31T05:44:53.514Z,20.69
2018-05-31T05:47:21.007Z,20.72
2018-05-31T05:49:48.594Z,20.77
2018-05-31T05:52:16.082Z,20.83
2018-05-31T05:54:43.578Z,20.89
2018-05-31T05:57:11.169Z,20.94
2018-05-31T05:59:38.668Z,21.03
2018-05-31T06:02:06.286Z,21.07
2018-05-31T06:04:33.841Z,21.13
2018-05-31T06:07:01.405Z,21.17
2018-05-31T06:09:28.931Z,21.27
2018-05-31T06:11:56.515Z,21.34
2018-05-31T06:14:24.180Z,21.41
2018-05-31T06:16:51.678Z,21.48
2018-05-31T06:19:19.159Z,21.51
2018-05-31T06:21:46.655Z,21.55
2018-05-31T06:24:14.187Z,21.56
2018-05-31T06:26:41.774Z,21.64
2018-05-31T06:29:09.334Z,21.67
2018-05-31T06:31:36.894Z,21.71
2018-05-31T06:34:04.398Z,21.79
2018-05-31T06:36:31.906Z,21.81
2018-05-31T06:38:59.408Z,21.88
2018-05-31T06:41:26.886Z,21.96
2018-05-31T06:43:54.482Z,22.07
2018-05-31T06:46:21.962Z,22.07
2018-05-31T06:48:49.495Z,22.15
2018-05-31T06:51:16.978Z,22.20
2018-05-31T06:53:44.499Z,22.17
2018-05-31T06:56:11.977Z,22.25
2018-05-31T06:58:39.465Z,22.36
2018-05-31T07:01:06.943Z,22.39
2018-05-31T07:03:34.441Z,22.35
2018-05-31T07:06:01.915Z,22.35
2018-05-31T07:08:29.501Z,22.44
2018-05-31T07:10:56.967Z,22.57
2018-05-31T07:13:24.468Z,22.65
2018-05-31T07:15:52.056Z,22.66
2018-05-31T07:18:19.589Z,22.70
2018-05-31T07:20:47.568Z,22.75
2018-05-31T07:23:15.120Z,22.87
2018-05-31T07:25:42.619Z,23.03
2018-05-31T07:28:10.129Z,23.09
2018-05-31T07:30:37.630Z,23.16
2018-05-31T07:33:05.146Z,23.28
2018-05-31T07:35:32.634Z,23.43
2018-05-31T07:38:00.160Z,23.62
2018-05-31T07:40:27.658Z,23.67
2018-05-31T07:42:55.134Z,23.68
2018-05-31T07:45:22.737Z,23.71
2018-05-31T07:47:50.297Z,23.75
2018-05-31T07:50:20.007Z,23.75
2018-05-31T07:52:47.496Z,23.78
2018-05-31T07:55:14.963Z,23.93
2018-05-31T07:57:42.474Z,23.99
2018-05-31T08:00:10.034Z,23.96
2018-05-31T08:02:37.522Z,24.05
2018-05-31T08:05:05.049Z,24.11
2018-05-31T08:07:34.224Z,24.19
2018-05-31T08:10:01.811Z,24.34
2018-05-31T08:12:29.282Z,24.45
2018-05-31T08:15:02.761Z,24.46
2018-05-31T08:17:30.318Z,24.56
2018-05-31T08:19:57.874Z,24.63
2018-05-31T08:22:25.408Z,24.69
2018-05-31T08:24:52.892Z,24.79
2018-05-31T08:27:20.409Z,24.91
2018-05-31T08:29:47.891Z,24.90
2018-05-31T08:32:15.468Z,24.98
2018-05-31T08:34:43.026Z,25.11
2018-05-31T08:37:13.657Z,25.13
2018-05-31T08:39:41.197Z,25.24
2018-05-31T08:42:08.680Z,25.40
2018-05-31T08:44:36.198Z,25.47
2018-05-31T08:47:03.707Z,25.48
2018-05-31T08:49:31.246Z,25.60
2018-05-31T08:51:58.810Z,25.62
2018-05-31T08:54:26.365Z,25.62
2018-05-31T08:56:53.911Z,25.68
2018-05-31T08:59:21.480Z,25.76
2018-05-31T09:01:48.965Z,25.77
2018-05-31T09:04:16.497Z,25.90
2018-05-31T09:06:44.059Z,26.01
2018-05-31T09:09:11.616Z,26.10
2018-05-31T09:11:39.174Z,26.19
2018-05-31T09:14:06.664Z,26.21
2018-05-31T09:16:34.149Z,26.24
2018-05-31T09:19:01.633Z,26.17
2018-05-31T09:21:29.123Z,26.06
2018-05-31T09:23:56.599Z,26.21
2018-05-31T09:26:24.121Z,26.30
2018-05-31T09:28:51.610Z,26.37
2018-05-31T09:31:19.091Z,26.36
2018-05-31T09:33:46.588Z,26.46
2018-05-31T09:36:14.148Z,26.63
2018-05-31T09:38:41.625Z,26.78
2018-05-31T09:41:09.174Z,26.89
2018-05-31T09:43:36.667Z,26.95
2018-05-31T09:46:04.144Z,26.93
2018-05-31T09:48:31.619Z,26.82
2018-05-31T09:50:59.103Z,26.79
2018-05-31T09:53:26.595Z,26.68
2018-05-31T09:55:54.067Z,26.76
2018-05-31T09:58:21.614Z,26.77
2018-05-31T10:00:49.124Z,26.83
2018-05-31T10:03:16.686Z,26.84
2018-05-31T10:05:44.240Z,26.91
2018-05-31T10:08:11.799Z,26.93
2018-05-31T10:10:39.302Z,27.11
2018-05-31T10:13:06.816Z,27.15
2018-05-31T10:15:34.291Z,27.22
2018-05-31T10:18:01.831Z,27.30
2018-05-31T10:20:29.346Z,27.37
2018-05-31T10:22:56.827Z,27.41
2018-05-31T10:25:24.323Z,27.28
2018-05-31T10:27:51.805Z,27.37
2018-05-31T10:30:19.320Z,27.49
2018-05-31T10:32:46.800Z,27.52
2018-05-31T10:35:14.334Z,27.62
2018-05-31T10:37:41.825Z,27.71
2018-05-31T10:40:09.303Z,27.76
2018-05-31T10:42:36.827Z,27.75
2018-05-31T10:45:05.080Z,27.85
2018-05-31T10:47:32.632Z,27.97
2018-05-31T10:50:00.202Z,28.09
2018-05-31T10:52:27.679Z,27.91
2018-05-31T10:54:55.213Z,28.04
2018-05-31T10:57:22.772Z,28.01
2018-05-31T10:59:50.243Z,27.99
2018-05-31T11:02:17.711Z,27.90
2018-05-31T11:04:45.244Z,28.07
2018-05-31T11:07:12.803Z,28.16
2018-05-31T11:09:40.362Z,28.10
2018-05-31T11:12:07.921Z,28.15
2018-05-31T11:14:35.408Z,27.99
2018-05-31T11:17:03.960Z,27.96
2018-05-31T11:19:31.455Z,28.11
2018-05-31T11:21:58.943Z,28.24
2018-05-31T11:24:27.175Z,28.28
2018-05-31T11:26:54.809Z,28.24
2018-05-31T11:29:22.370Z,28.17
2018-05-31T11:31:49.923Z,28.04
2018-05-31T11:34:17.409Z,28.16
2018-05-31T11:36:44.906Z,28.35
2018-05-31T11:39:12.398Z,28.30
2018-05-31T11:41:39.984Z,28.29
2018-05-31T11:44:07.458Z,28.21
2018-05-31T11:46:34.942Z,28.38
2018-05-31T11:49:02.435Z,28.49
2018-05-31T11:51:29.931Z,28.60
2018-05-31T11:53:57.446Z,28.71
2018-05-31T11:56:25.589Z,28.75
2018-05-31T11:58:53.075Z,28.62
2018-05-31T12:01:20.550Z,28.70
2018-05-31T12:03:48.038Z,28.79
2018-05-31T12:06:15.542Z,28.85
2018-05-31T12:08:43.023Z,29.03
2018-05-31T12:11:10.508Z,29.13
2018-05-31T12:13:38.021Z,29.14
2018-05-31T12:16:05.496Z,29.28
2018-05-31T12:18:33.036Z,29.41
2018-05-31T12:21:00.510Z,29.41
2018-05-31T12:23:27.998Z,29.31
2018-05-31T12:25:55.496Z,29.34
2018-05-31T12:28:23.070Z,29.43
2018-05-31T12:30:50.543Z,29.46
2018-05-31T12:33:18.081Z,29.25
2018-05-31T12:35:45.641Z,29.13
2018-05-31T12:38:13.301Z,29.23
2018-05-31T12:40:40.803Z,29.32
2018-05-31T12:43:08.288Z,29.38
2018-05-31T12:45:35.885Z,29.53
2018-05-31T12:48:03.374Z,29.41
2018-05-31T12:50:30.900Z,29.04
2018-05-31T12:52:58.454Z,28.86
2018-05-31T12:55:25.943Z,29.10
2018-05-31T12:57:53.488Z,29.24
2018-05-31T13:00:20.974Z,29.47
2018-05-31T13:02:48.484Z,29.60
2018-05-31T13:05:16.040Z,29.41
2018-05-31T13:07:43.595Z,29.43
2018-05-31T13:10:11.088Z,29.52
2018-05-31T13:12:38.575Z,29.57
2018-05-31T13:15:06.050Z,29.53
2018-05-31T13:17:33.547Z,29.38
2018-05-31T13:20:01.035Z,29.39
2018-05-31T13:22:28.523Z,29.56
2018-05-31T13:24:56.102Z,29.75
2018-05-31T13:27:23.663Z,29.91
2018-05-31T13:29:51.146Z,29.97
2018-05-31T13:32:18.635Z,30.09
2018-05-31T13:34:46.132Z,30.14
2018-05-31T13:37:13.619Z,29.89
2018-05-31T13:39:41.140Z,30.00
2018-05-31T13:42:09.265Z,30.05
2018-05-31T13:44:36.813Z,30.05
2018-05-31T13:47:04.305Z,30.12
2018-05-31T13:49:31.894Z,30.12
2018-05-31T13:51:59.382Z,30.24
2018-05-31T13:54:26.910Z,30.19
2018-05-31T13:56:54.463Z,30.13
2018-05-31T13:59:21.999Z,30.14
2018-05-31T14:01:49.586Z,30.09
2018-05-31T14:04:17.058Z,30.09
2018-05-31T14:06:44.602Z,30.23
2018-05-31T14:09:12.091Z,30.29
2018-05-31T14:11:39.558Z,30.29
2018-05-31T14:14:07.035Z,30.38
2018-05-31T14:16:34.647Z,30.36
2018-05-31T14:19:02.133Z,30.26
2018-05-31T14:21:29.608Z,30.25
2018-05-31T14:23:57.187Z,30.40
2018-05-31T14:26:26.367Z,30.51
2018-05-31T14:28:53.964Z,30.59
2018-05-31T14:31:22.679Z,30.58
2018-05-31T14:33:50.207Z,30.62
2018-05-31T14:36:17.681Z,30.57
2018-05-31T14:38:45.170Z,30.53
2018-05-31T14:41:12.657Z,30.52
2018-05-31T14:43:40.158Z,30.47
2018-05-31T14:46:08.723Z,30.52
2018-05-31T14:48:36.380Z,30.48
2018-05-31T14:51:03.871Z,30.45
2018-05-31T14:53:31.498Z,30.50
2018-05-31T14:56:01.419Z,30.54
2018-05-31T14:58:29.041Z,30.58
2018-05-31T15:00:56.655Z,30.59
2018-05-31T15:03:24.139Z,30.55
2018-05-31T15:05:53.334Z,30.71
2018-05-31T15:08:20.843Z,30.71
2018-05-31T15:10:48.404Z,30.46
2018-05-31T15:13:16.066Z,30.20
2018-05-31T15:15:43.623Z,30.11
2018-05-31T15:18:11.120Z,30.24
2018-05-31T15:20:38.653Z,30.23
2018-05-31T15:23:06.146Z,30.34
2018-05-31T15:25:33.655Z,30.17
2018-05-31T15:28:01.126Z,30.14
2018-05-31T15:30:28.670Z,30.10
2018-05-31T15:32:56.229Z,30.12
2018-05-31T15:35:23.735Z,30.07
2018-05-31T15:37:51.262Z,30.16
2018-05-31T15:40:18.757Z,30.18
2018-05-31T15:42:46.246Z,30.11
2018-05-31T15:45:13.818Z,30.08
2018-05-31T15:47:41.382Z,30.14
2018-05-31T15:50:08.936Z,30.14
2018-05-31T15:52:36.497Z,30.18
2018-05-31T15:55:04.035Z,30.21
2018-05-31T15:57:31.529Z,30.23
2018-05-31T15:59:59.069Z,30.22
2018-05-31T16:02:26.628Z,30.29
2018-05-31T16:04:54.144Z,30.22
2018-05-31T16:07:21.653Z,30.09
2018-05-31T16:09:49.197Z,30.08
2018-05-31T16:12:16.673Z,30.14
2018-05-31T16:14:44.217Z,30.17
2018-05-31T16:17:11.775Z,30.17
2018-05-31T16:19:39.268Z,30.15
2018-05-31T16:22:06.920Z,30.14
2018-05-31T16:24:34.391Z,30.06
2018-05-31T16:27:01.865Z,30.01
2018-05-31T16:29:29.359Z,29.96
2018-05-31T16:31:56.865Z,29.98
2018-05-31T16:34:24.340Z,29.98
2018-05-31T16:36:51.827Z,29.89
2018-05-31T16:39:19.307Z,29.81
2018-05-31T16:41:46.782Z,29.79
2018-05-31T16:44:14.315Z,29.69
2018-05-31T16:46:41.795Z,29.74
2018-05-31T16:49:09.327Z,29.76
2018-05-31T16:51:36.823Z,29.80
2018-05-31T16:54:04.338Z,29.78
2018-05-31T16:56:31.818Z,29.79
2018-05-31T16:58:59.303Z,29.77
2018-05-31T17:01:26.809Z,29.78
2018-05-31T17:03:54.279Z,29.72
2018-05-31T17:06:21.805Z,29.74
2018-05-31T17:08:49.292Z,29.78
2018-05-31T17:11:16.766Z,29.81
2018-05-31T17:13:44.279Z,29.79
2018-05-31T17:16:11.758Z,29.76
2018-05-31T17:18:39.264Z,29.72
2018-05-31T17:21:06.770Z,29.62
2018-05-31T17:23:34.244Z,29.51
2018-05-31T17:26:01.719Z,29.50
2018-05-31T17:28:29.225Z,29.50
2018-05-31T17:30:56.707Z,29.51
2018-05-31T17:33:24.257Z,29.48
2018-05-31T17:35:51.754Z,29.48
2018-05-31T17:38:19.298Z,29.44
2018-05-31T17:40:46.831Z,29.43
2018-05-31T17:43:14.330Z,29.44
2018-05-31T17:45:41.807Z,29.42
2018-05-31T17:48:09.288Z,29.34
2018-05-31T17:50:36.867Z,29.20
2018-05-31T17:53:04.351Z,29.16
2018-05-31T17:55:31.838Z,29.16
2018-05-31T17:57:59.328Z,29.15
2018-05-31T18:00:26.811Z,29.07
2018-05-31T18:02:54.360Z,29.02
2018-05-31T18:05:21.874Z,28.95
2018-05-31T18:07:49.449Z,28.93
2018-05-31T18:10:18.664Z,28.88
2018-05-31T18:12:46.735Z,28.82
2018-05-31T18:15:15.492Z,28.75
2018-05-31T18:17:43.016Z,28.65
2018-05-31T18:20:10.641Z,28.54
2018-05-31T18:22:38.202Z,28.41
2018-05-31T18:25:05.683Z,28.34
2018-05-31T18:27:34.619Z,28.28
2018-05-31T18:30:02.212Z,28.21
2018-05-31T18:32:29.703Z,28.13
2018-05-31T18:34:57.221Z,27.97
2018-05-31T18:37:29.698Z,27.79
2018-05-31T18:39:57.219Z,27.61
2018-05-31T18:42:24.731Z,27.44
2018-05-31T18:44:54.217Z,27.26
2018-05-31T18:47:21.769Z,27.09
2018-05-31T18:49:49.305Z,26.99
2018-05-31T18:52:16.893Z,26.84
2018-05-31T18:54:45.186Z,26.71
2018-05-31T18:57:12.959Z,26.60
2018-05-31T18:59:40.453Z,26.51
2018-05-31T19:02:07.947Z,26.39
2018-05-31T19:04:35.454Z,26.23
2018-05-31T19:07:03.886Z,26.06
2018-05-31T19:09:37.384Z,25.93
2018-05-31T19:12:04.943Z,25.72
2018-05-31T19:14:32.503Z,25.56
2018-05-31T19:17:00.063Z,25.39
2018-05-31T19:19:33.147Z,25.27
2018-05-31T19:22:00.639Z,25.14
2018-05-31T19:24:33.799Z,25.02
2018-05-31T19:27:01.366Z,24.85
2018-05-31T19:29:28.922Z,24.69
2018-05-31T19:31:56.415Z,24.55
2018-05-31T19:34:23.924Z,24.33
2018-05-31T19:36:57.224Z,24.17
2018-05-31T19:39:24.784Z,24.18
2018-05-31T19:41:52.340Z,24.05
2018-05-31T19:44:25.360Z,23.93
2018-05-31T19:46:52.885Z,23.79
2018-05-31T19:49:20.356Z,23.63
2018-05-31T19:51:53.259Z,23.52
2018-05-31T19:54:20.783Z,23.39
2018-05-31T19:56:48.273Z,23.29
2018-05-31T19:59:21.487Z,23.04
2018-05-31T20:01:54.542Z,22.91
2018-05-31T20:04:22.043Z,22.80
2018-05-31T20:06:49.530Z,22.68
2018-05-31T20:09:17.027Z,22.61
2018-05-31T20:11:44.541Z,22.55
2018-05-31T20:14:12.110Z,22.50
2018-05-31T20:16:39.669Z,22.48
2018-05-31T20:19:07.230Z,22.29
2018-05-31T20:21:34.747Z,22.30
2018-05-31T20:24:02.243Z,22.22
2018-05-31T20:26:29.871Z,22.16
2018-05-31T20:28:57.360Z,22.10
2018-05-31T20:31:24.920Z,22.07
2018-05-31T20:33:52.478Z,22.00
2018-05-31T20:36:20.038Z,21.94
2018-05-31T20:38:47.561Z,21.85
2018-05-31T20:41:15.043Z,21.77
2018-05-31T20:43:42.525Z,21.67
2018-05-31T20:46:10.055Z,21.44
2018-05-31T20:48:37.559Z,21.36
2018-05-31T20:51:08.076Z,21.38
2018-05-31T20:53:35.616Z,21.38
2018-05-31T20:56:03.955Z,21.37
2018-05-31T20:58:31.435Z,21.34
2018-05-31T21:00:59.007Z,21.28
2018-05-31T21:03:26.564Z,21.23
2018-05-31T21:05:54.048Z,21.21
2018-05-31T21:08:21.530Z,21.20
2018-05-31T21:10:49.019Z,21.17
2018-05-31T21:13:16.494Z,21.07
2018-05-31T21:15:43.977Z,21.15
2018-05-31T21:18:11.458Z,21.12
2018-05-31T21:20:38.975Z,21.08
2018-05-31T21:23:06.522Z,21.04
2018-05-31T21:25:34.082Z,20.98
2018-05-31T21:28:01.564Z,20.90
2018-05-31T21:30:29.097Z,20.88
2018-05-31T21:32:56.656Z,20.81
2018-05-31T21:35:24.222Z,20.75
2018-05-31T21:37:52.536Z,20.74
2018-05-31T21:40:20.029Z,20.68
2018-05-31T21:42:47.554Z,20.66
2018-05-31T21:45:15.026Z,20.63
2018-05-31T21:47:42.510Z,20.58
2018-05-31T21:50:09.990Z,20.51
2018-05-31T21:52:37.594Z,20.47
2018-05-31T21:55:05.036Z,20.40
2018-05-31T21:57:32.552Z,20.36
2018-05-31T22:00:00.111Z,20.37
2018-05-31T22:02:27.594Z,20.35
2018-05-31T22:04:55.128Z,20.28
2018-05-31T22:07:22.683Z,20.28
2018-05-31T22:09:50.243Z,20.27
2018-05-31T22:12:17.728Z,20.26
2018-05-31T22:14:45.258Z,20.25
2018-05-31T22:17:12.818Z,20.22
2018-05-31T22:19:40.377Z,20.19
2018-05-31T22:22:07.946Z,20.13
2018-05-31T22:24:35.494Z,20.13
2018-05-31T22:27:03.053Z,20.11
2018-05-31T22:29:30.608Z,20.06
2018-05-31T22:31:58.157Z,19.98
2018-05-31T22:34:25.667Z,19.91
2018-05-31T22:36:53.201Z,19.82
2018-05-31T22:39:20.745Z,19.79
2018-05-31T22:41:48.304Z,19.77
2018-05-31T22:44:15.795Z,19.72
2018-05-31T22:46:43.323Z,19.69
2018-05-31T22:49:10.878Z,19.59
2018-05-31T22:51:38.439Z,19.55
2018-05-31T22:54:05.931Z,19.52
2018-05-31T22:56:33.421Z,19.47
2018-05-31T22:59:01.011Z,19.44
2018-05-31T23:01:28.570Z,19.41
2018-05-31T23:03:56.130Z,19.32
2018-05-31T23:06:23.618Z,19.28
2018-05-31T23:08:51.144Z,19.24
2018-05-31T23:11:18.627Z,19.17
2018-05-31T23:13:46.102Z,19.16
2018-05-31T23:16:13.618Z,19.13
2018-05-31T23:18:41.102Z,19.12
2018-05-31T23:21:08.575Z,19.12
2018-05-31T23:23:36.079Z,19.07
2018-05-31T23:26:03.554Z,19.06
2018-05-31T23:28:31.038Z,19.01
2018-05-31T23:30:58.560Z,18.98
2018-05-31T23:33:26.118Z,18.92
2018-05-31T23:35:53.595Z,18.93
2018-05-31T23:38:21.193Z,18.90
2018-05-31T23:40:48.686Z,18.90
2018-05-31T23:43:16.300Z,18.90
2018-05-31T23:45:43.813Z,18.86
2018-05-31T23:48:11.372Z,18.84
2018-05-31T23:50:38.928Z,18.79
2018-05-31T23:53:06.497Z,18.76
2018-05-31T23:55:33.994Z,18.70
2018-05-31T23:58:01.503Z,18.67
